logo
Rechercher aéroport 
image banner adimage banner adimage banner ad
image banner ad

4CA9 - Randy Champe-Gary Howe Memorial

Situé à Los Angeles, United States

ICAO - 4CA9, IATA -

Données fournies par Airmate  

Information générale

Coordonnées: N33°58'12" W118°16'39"
Élévation : 184 feet MSL.
Variation magnétique : 14° East
Voir autres Aéroports à California

Données opérationnelles

Special qualification required
Heure actuelle UTC:
Heure actuelle locale:
METAR: KHHR 281153Z AUTO 00000KT 10SM CLR 21/17 A2988 RMK AO2 SLP118 T02110172 10228 20211 55001 $
Voir NOTAMs / SUP AIP / TFR affectant cet aéroport [VIEW]
Fréquences de communication: [VIEW]

Pistes:

Coordonnées de l'aéroport

Adresse: Los Angeles United States

Vue satellite de 4CA9